createdAt,value
2022-11-23T00:01:42.318Z,9.80
2022-11-23T00:06:43.980Z,9.98
2022-11-23T00:11:46.986Z,9.05
2022-11-23T00:16:48.697Z,10.18
2022-11-23T00:21:50.506Z,10.32
2022-11-23T00:26:56.864Z,10.18
2022-11-23T00:31:58.597Z,9.60
2022-11-23T00:37:00.326Z,9.77
2022-11-23T00:42:02.037Z,9.45
2022-11-23T00:47:04.956Z,10.02
2022-11-23T00:52:09.210Z,9.73
2022-11-23T00:57:10.846Z,8.32
2022-11-23T01:02:13.534Z,9.00
2022-11-23T01:07:15.164Z,9.63
2022-11-23T01:12:16.762Z,9.05
2022-11-23T01:17:22.388Z,11.00
2022-11-23T01:22:24.074Z,10.77
2022-11-23T01:27:25.644Z,9.75
2022-11-23T01:32:28.840Z,10.15
2022-11-23T01:37:32.075Z,9.82
2022-11-23T01:42:54.806Z,9.48
2022-11-23T01:47:56.587Z,8.32
2022-11-23T01:52:58.561Z,9.52
2022-11-23T01:58:02.390Z,7.93
2022-11-23T02:03:07.365Z,8.40
2022-11-23T02:08:10.828Z,9.23
2022-11-23T02:13:14.026Z,9.52
2022-11-23T02:18:19.804Z,8.95
2022-11-23T02:23:33.064Z,8.10
2022-11-23T02:28:41.817Z,9.85
2022-11-23T02:33:43.647Z,8.15
2022-11-23T02:38:45.469Z,8.85
2022-11-23T02:43:51.758Z,8.73
2022-11-23T02:48:53.344Z,8.82
2022-11-23T02:53:54.957Z,8.82
2022-11-23T02:58:56.569Z,8.43
2022-11-23T03:03:58.154Z,8.80
2022-11-23T03:09:03.422Z,8.07
2022-11-23T03:14:05.779Z,7.55
2022-11-23T03:19:16.635Z,7.55
2022-11-23T03:24:18.750Z,6.82
2022-11-23T03:29:26.350Z,6.43
2022-11-23T03:34:29.575Z,6.88
2022-11-23T03:39:31.572Z,6.45
2022-11-23T03:44:36.404Z,6.32
2022-11-23T03:49:39.708Z,7.43
2022-11-23T03:54:43.318Z,7.00
2022-11-23T03:59:46.100Z,7.82
2022-11-23T04:04:48.812Z,7.72
2022-11-23T04:10:20.285Z,8.80
2022-11-23T04:15:48.123Z,8.10
2022-11-23T04:20:49.806Z,9.15
2022-11-23T04:25:53.430Z,9.55
2022-11-23T04:30:55.465Z,8.68
2022-11-23T04:35:58.116Z,8.68
2022-11-23T04:41:00.238Z,9.27
2022-11-23T04:46:02.666Z,7.88
2022-11-23T04:51:05.672Z,7.57
2022-11-23T04:56:11.853Z,7.85
2022-11-23T05:01:15.594Z,7.63
2022-11-23T05:11:38.718Z,8.20
2022-11-23T05:16:41.962Z,7.57
2022-11-23T05:21:44.329Z,7.45
2022-11-23T05:26:48.236Z,7.45
2022-11-23T05:31:52.675Z,6.90
2022-11-23T05:36:54.487Z,7.10
2022-11-23T05:41:58.422Z,6.53
2022-11-23T05:47:27.739Z,6.75
2022-11-23T05:52:29.613Z,5.93
2022-11-23T05:57:31.479Z,7.07
2022-11-23T06:02:38.126Z,6.70
2022-11-23T06:07:42.704Z,6.80
2022-11-23T06:12:47.697Z,6.38
2022-11-23T06:17:52.279Z,6.80
2022-11-23T06:22:56.709Z,6.18
2022-11-23T06:28:01.520Z,5.80
2022-11-23T06:33:10.950Z,6.20
2022-11-23T06:38:18.597Z,6.20
2022-11-23T06:43:20.551Z,5.90
2022-11-23T06:48:24.706Z,5.75
2022-11-23T06:53:28.432Z,6.07
2022-11-23T06:58:35.324Z,6.40
2022-11-23T07:03:39.734Z,7.60
2022-11-23T07:08:54.774Z,7.97
2022-11-23T07:14:14.237Z,8.43
2022-11-23T07:19:20.258Z,7.78
2022-11-23T07:24:24.014Z,7.05
2022-11-23T07:29:25.806Z,6.90
2022-11-23T07:34:30.473Z,7.65
2022-11-23T07:39:55.537Z,6.22
2022-11-23T07:44:55.846Z,5.88
2022-11-23T07:49:57.584Z,4.90
2022-11-23T07:55:05.914Z,6.07
2022-11-23T08:00:09.442Z,3.67
2022-11-23T08:05:14.380Z,4.22
2022-11-23T08:10:23.213Z,3.05
2022-11-23T08:15:25.602Z,2.83
2022-11-23T08:20:34.185Z,2.97
2022-11-23T08:25:35.855Z,3.20
2022-11-23T08:30:38.312Z,3.70
2022-11-23T08:35:41.603Z,3.80
2022-11-23T08:40:52.586Z,3.22
2022-11-23T08:46:06.689Z,3.65
2022-11-23T08:51:11.548Z,4.07
2022-11-23T08:56:13.210Z,3.00
2022-11-23T09:01:16.360Z,2.78
2022-11-23T09:06:18.029Z,3.50
2022-11-23T09:11:19.643Z,3.42
2022-11-23T09:16:22.413Z,2.40
2022-11-23T09:21:29.334Z,2.80
2022-11-23T09:26:37.705Z,2.42
2022-11-23T09:31:39.461Z,3.00
2022-11-23T09:36:41.057Z,3.17
2022-11-23T09:42:01.254Z,2.80
2022-11-23T09:47:15.956Z,6.45
2022-11-23T09:52:22.492Z,3.10
2022-11-23T09:57:28.418Z,4.22
2022-11-23T10:02:32.157Z,3.17
2022-11-23T10:08:02.594Z,3.33
2022-11-23T10:13:13.563Z,3.40
2022-11-23T10:18:38.861Z,4.10
2022-11-23T10:23:54.096Z,3.75
2022-11-23T10:29:07.165Z,2.75
2022-11-23T10:34:12.116Z,3.03
2022-11-23T15:12:52.922Z,2.40
2022-11-23T15:18:01.974Z,2.15
2022-11-23T15:23:05.413Z,1.95
2022-11-23T15:28:17.071Z,2.58
2022-11-23T15:33:21.299Z,2.78
2022-11-23T15:38:24.063Z,2.80
2022-11-23T15:43:25.894Z,2.30
2022-11-23T15:48:32.958Z,2.80
2022-11-23T15:53:49.106Z,3.75
2022-11-23T15:58:53.241Z,3.10
2022-11-23T16:04:04.711Z,2.90
2022-11-23T16:09:51.243Z,5.38
2022-11-23T16:14:56.237Z,3.15
2022-11-23T16:20:02.080Z,2.95
2022-11-23T16:25:08.886Z,3.70
2022-11-23T16:30:35.159Z,3.97
2022-11-23T16:35:36.833Z,4.28
2022-11-23T16:40:42.589Z,4.15
2022-11-23T16:45:46.802Z,4.43
2022-11-23T16:50:48.648Z,4.47
2022-11-23T16:55:53.226Z,4.05
2022-11-23T17:00:57.140Z,4.13
2022-11-23T17:05:58.798Z,4.30
2022-11-23T17:11:01.529Z,4.65
2022-11-23T17:16:03.480Z,5.05
2022-11-23T17:21:05.261Z,5.60
2022-11-23T17:26:18.412Z,5.05
2022-11-23T17:31:21.721Z,5.40
2022-11-23T18:52:14.017Z,5.15
2022-11-23T18:57:16.952Z,6.13
2022-11-23T19:02:19.737Z,5.90
2022-11-23T19:07:26.647Z,6.35
2022-11-23T19:12:30.933Z,6.72
2022-11-23T19:17:33.202Z,6.60
2022-11-23T19:22:36.091Z,6.53
2022-11-23T19:27:37.813Z,6.43
2022-11-23T19:32:39.409Z,5.82
2022-11-23T21:09:33.079Z,5.95
2022-11-23T21:14:35.200Z,5.65
2022-11-23T21:19:39.571Z,3.92
2022-11-23T21:24:43.229Z,4.65
2022-11-23T21:29:45.071Z,4.55
2022-11-23T21:34:47.595Z,3.95
2022-11-23T21:39:52.843Z,4.53
2022-11-23T21:44:57.652Z,4.10
2022-11-23T21:49:59.672Z,4.18
2022-11-23T21:55:04.205Z,4.47
2022-11-23T22:00:08.104Z,4.63
2022-11-23T22:05:15.829Z,5.30
2022-11-23T22:10:18.085Z,4.32
2022-11-23T22:15:20.031Z,4.40
2022-11-23T22:20:21.913Z,5.03
2022-11-23T22:25:23.839Z,4.93
2022-11-23T22:30:25.740Z,4.35
2022-11-23T22:35:27.634Z,5.15
2022-11-23T22:40:32.782Z,4.88
2022-11-23T22:45:34.753Z,4.53
2022-11-23T22:51:04.841Z,4.95
2022-11-23T22:56:11.975Z,5.63
2022-11-23T23:01:16.420Z,4.63
2022-11-23T23:06:20.251Z,4.63
2022-11-23T23:11:22.980Z,4.68
2022-11-23T23:16:25.978Z,5.28
2022-11-23T23:21:28.795Z,3.58
2022-11-23T23:26:30.567Z,3.75
2022-11-23T23:31:32.376Z,3.80
2022-11-23T23:36:35.951Z,3.38
2022-11-23T23:41:37.796Z,2.47
2022-11-23T23:46:39.688Z,3.13
2022-11-23T23:51:41.536Z,2.58
2022-11-23T23:56:43.438Z,2.70
